createdAt,value
2017-11-15T00:00:35.197Z,0
2017-11-15T00:01:15.722Z,0
2017-11-15T00:01:56.252Z,0
2017-11-15T00:02:36.752Z,0
2017-11-15T00:03:17.287Z,0
2017-11-15T00:03:57.786Z,0
2017-11-15T00:04:38.374Z,0
2017-11-15T00:05:18.876Z,0
2017-11-15T00:05:59.414Z,0
2017-11-15T00:06:39.955Z,0
2017-11-15T00:07:20.514Z,0
2017-11-15T00:08:01.050Z,0
2017-11-15T00:08:41.569Z,0
2017-11-15T00:09:22.149Z,0
2017-11-15T00:10:02.662Z,0
2017-11-15T00:10:43.263Z,0
2017-11-15T00:11:23.760Z,0
2017-11-15T00:12:04.378Z,0
2017-11-15T00:12:44.925Z,0
2017-11-15T00:13:25.483Z,0
2017-11-15T00:14:06.035Z,0
2017-11-15T00:14:46.558Z,0
2017-11-15T00:15:27.171Z,0
2017-11-15T00:16:07.659Z,0
2017-11-15T00:16:48.162Z,0
2017-11-15T00:17:28.738Z,0
2017-11-15T00:18:09.244Z,0
2017-11-15T00:18:49.806Z,0
2017-11-15T00:19:30.393Z,0
2017-11-15T00:20:11.031Z,0
2017-11-15T00:20:51.532Z,0
2017-11-15T00:21:32.038Z,0
2017-11-15T00:22:12.672Z,0
2017-11-15T00:22:53.200Z,0
2017-11-15T00:23:33.758Z,0
2017-11-15T00:24:14.458Z,0
2017-11-15T00:24:54.979Z,0
2017-11-15T00:25:35.638Z,0
2017-11-15T00:26:16.189Z,0
2017-11-15T00:26:56.781Z,0
2017-11-15T00:27:37.322Z,0
2017-11-15T00:28:17.846Z,0
2017-11-15T00:28:58.433Z,0
2017-11-15T00:29:39.016Z,0
2017-11-15T00:30:19.599Z,0
2017-11-15T00:31:00.096Z,0
2017-11-15T00:31:40.685Z,0
2017-11-15T00:32:21.204Z,0
2017-11-15T00:33:01.798Z,0
2017-11-15T00:33:42.401Z,0
2017-11-15T00:34:22.919Z,0
2017-11-15T00:35:03.412Z,0
2017-11-15T00:35:43.969Z,0
2017-11-15T00:36:24.578Z,0
2017-11-15T00:37:05.164Z,0
2017-11-15T00:37:45.714Z,0
2017-11-15T00:38:26.251Z,0
2017-11-15T00:39:06.789Z,0
2017-11-15T00:39:47.345Z,0
2017-11-15T00:40:27.885Z,0
2017-11-15T00:41:08.450Z,0
2017-11-15T00:41:48.957Z,0
2017-11-15T00:42:29.520Z,0
2017-11-15T00:43:10.067Z,0
2017-11-15T00:43:50.635Z,0
2017-11-15T00:44:31.151Z,0
2017-11-15T00:45:11.682Z,0
2017-11-15T00:45:52.271Z,0
2017-11-15T00:46:32.779Z,0
2017-11-15T00:47:13.329Z,0
2017-11-15T00:47:53.857Z,0
2017-11-15T00:48:34.382Z,0
2017-11-15T00:49:15.140Z,0
2017-11-15T00:49:55.631Z,0
2017-11-15T00:50:36.175Z,0
2017-11-15T00:51:16.658Z,0
2017-11-15T00:51:57.218Z,0
2017-11-15T00:52:37.742Z,0
2017-11-15T00:53:18.287Z,0
2017-11-15T00:53:58.864Z,0
2017-11-15T00:54:39.482Z,0
2017-11-15T00:55:19.942Z,0
2017-11-15T00:56:00.510Z,0
2017-11-15T00:56:41.008Z,0
2017-11-15T00:57:21.546Z,0
2017-11-15T00:58:02.163Z,0
2017-11-15T00:58:42.702Z,0
2017-11-15T00:59:23.312Z,0
2017-11-15T01:00:04.002Z,0
2017-11-15T01:00:44.573Z,0
2017-11-15T01:01:25.110Z,0
2017-11-15T01:02:05.680Z,0
2017-11-15T01:02:46.265Z,0
2017-11-15T01:03:26.834Z,0
2017-11-15T01:04:07.445Z,0
2017-11-15T01:04:47.982Z,0
2017-11-15T01:05:28.509Z,0
2017-11-15T01:06:09.085Z,0
2017-11-15T01:06:49.648Z,0
2017-11-15T01:07:30.291Z,0
2017-11-15T01:08:10.888Z,0
2017-11-15T01:08:51.356Z,0
2017-11-15T01:09:31.949Z,0
2017-11-15T01:10:12.448Z,0
2017-11-15T01:10:52.920Z,0
2017-11-15T01:11:33.581Z,0
2017-11-15T01:12:14.217Z,0
2017-11-15T01:12:54.756Z,0
2017-11-15T01:13:35.336Z,0
2017-11-15T01:14:15.914Z,0
2017-11-15T01:14:56.482Z,0
2017-11-15T01:15:37.018Z,0
2017-11-15T01:16:17.676Z,0
2017-11-15T01:16:58.262Z,0
2017-11-15T01:17:38.761Z,0
2017-11-15T01:18:19.332Z,0
2017-11-15T01:18:59.873Z,0
2017-11-15T01:19:40.358Z,0
2017-11-15T01:20:20.930Z,0
2017-11-15T01:21:01.435Z,0
2017-11-15T01:21:42.000Z,0
2017-11-15T01:22:22.581Z,0
2017-11-15T01:23:03.131Z,0
2017-11-15T01:23:43.640Z,0
2017-11-15T01:24:24.202Z,0
2017-11-15T01:25:04.692Z,0
2017-11-15T01:25:45.338Z,0
2017-11-15T01:26:25.935Z,0
2017-11-15T01:27:06.424Z,0
2017-11-15T01:27:46.924Z,0
2017-11-15T01:28:27.474Z,0
2017-11-15T01:29:08.025Z,0
2017-11-15T01:29:48.498Z,0
2017-11-15T01:30:29.025Z,0
2017-11-15T01:31:09.606Z,0
2017-11-15T01:31:50.129Z,0
2017-11-15T01:32:30.675Z,0
2017-11-15T01:33:11.225Z,0
2017-11-15T01:33:51.693Z,0
2017-11-15T01:34:32.314Z,0
2017-11-15T01:35:12.841Z,0
2017-11-15T01:35:53.359Z,0
2017-11-15T01:36:33.912Z,0
2017-11-15T01:37:14.380Z,0
2017-11-15T01:37:54.952Z,0
2017-11-15T01:38:35.478Z,0
2017-11-15T01:39:15.985Z,0
2017-11-15T01:39:56.507Z,0
2017-11-15T01:40:37.033Z,0
2017-11-15T01:41:17.595Z,0
2017-11-15T01:41:58.214Z,0
2017-11-15T01:42:38.718Z,0
2017-11-15T01:43:19.249Z,0
2017-11-15T01:43:59.776Z,0
2017-11-15T01:44:40.315Z,0
2017-11-15T01:45:20.868Z,0
2017-11-15T01:46:01.379Z,0
2017-11-15T01:46:41.876Z,0
2017-11-15T01:47:22.382Z,0
2017-11-15T01:48:02.910Z,0
2017-11-15T01:48:43.423Z,0
2017-11-15T01:49:24.863Z,0
2017-11-15T01:50:04.524Z,0
2017-11-15T01:50:45.065Z,0
2017-11-15T01:51:25.688Z,0
2017-11-15T01:52:06.092Z,0
2017-11-15T01:52:46.668Z,0
2017-11-15T01:53:27.157Z,0
2017-11-15T01:54:07.667Z,0
2017-11-15T01:54:48.339Z,0
2017-11-15T01:55:28.863Z,0
2017-11-15T01:56:09.372Z,0
2017-11-15T01:56:49.919Z,0
2017-11-15T01:57:30.420Z,0
2017-11-15T01:58:11.074Z,0
2017-11-15T01:58:51.530Z,0
2017-11-15T01:59:32.099Z,0
2017-11-15T02:00:12.665Z,0
2017-11-15T02:00:53.125Z,0
2017-11-15T02:01:33.700Z,0
2017-11-15T02:02:14.257Z,0
2017-11-15T02:02:54.787Z,0
2017-11-15T02:03:35.289Z,0
2017-11-15T02:04:15.815Z,0
2017-11-15T02:04:56.294Z,0
2017-11-15T02:05:36.865Z,0
2017-11-15T02:06:17.463Z,0
2017-11-15T02:06:57.978Z,0
2017-11-15T02:07:38.506Z,0
2017-11-15T02:08:19.063Z,0
2017-11-15T02:08:59.578Z,0
2017-11-15T02:09:40.080Z,0
2017-11-15T02:10:20.567Z,0
2017-11-15T02:11:01.135Z,0
2017-11-15T02:11:41.688Z,0
2017-11-15T02:12:22.221Z,0
2017-11-15T02:13:02.775Z,0
2017-11-15T02:13:43.345Z,0
2017-11-15T02:14:23.865Z,0
2017-11-15T02:15:04.369Z,0
2017-11-15T02:15:44.894Z,0
2017-11-15T02:16:25.421Z,0
2017-11-15T02:17:06.084Z,0
2017-11-15T02:17:46.704Z,0
2017-11-15T02:18:27.258Z,0
2017-11-15T02:19:07.760Z,0
2017-11-15T02:19:48.269Z,0
2017-11-15T02:20:28.770Z,0
2017-11-15T02:21:09.350Z,0
2017-11-15T02:21:49.879Z,0
2017-11-15T02:22:30.400Z,0
2017-11-15T02:23:10.984Z,0
2017-11-15T02:23:51.501Z,0
2017-11-15T02:24:32.035Z,0
2017-11-15T02:25:12.620Z,0
2017-11-15T02:25:53.158Z,0
2017-11-15T02:26:33.706Z,0
2017-11-15T02:27:14.183Z,0
2017-11-15T02:27:54.722Z,0
2017-11-15T02:28:35.305Z,0
2017-11-15T02:29:15.850Z,0
2017-11-15T02:29:56.427Z,0
2017-11-15T02:30:36.927Z,0
2017-11-15T02:31:17.554Z,0
2017-11-15T02:31:58.012Z,0
2017-11-15T02:32:38.598Z,0
2017-11-15T02:33:19.164Z,0
2017-11-15T02:33:59.714Z,0
2017-11-15T02:34:40.300Z,0
2017-11-15T02:35:20.828Z,0
2017-11-15T02:36:01.329Z,0
2017-11-15T02:36:41.858Z,0
2017-11-15T02:37:22.403Z,0
2017-11-15T02:38:02.926Z,0
2017-11-15T02:38:43.583Z,0
2017-11-15T02:39:24.269Z,0
2017-11-15T02:40:04.835Z,0
2017-11-15T02:40:45.661Z,0
2017-11-15T02:41:26.336Z,0
2017-11-15T02:42:06.905Z,0
2017-11-15T02:42:47.479Z,0
2017-11-15T02:43:28.392Z,0
2017-11-15T02:44:08.989Z,0
2017-11-15T02:44:49.502Z,0
2017-11-15T02:45:30.074Z,0
2017-11-15T02:46:10.553Z,0
2017-11-15T02:46:51.157Z,0
2017-11-15T02:47:31.718Z,0
2017-11-15T02:48:12.297Z,0
2017-11-15T02:48:52.860Z,0
2017-11-15T02:49:33.369Z,0
2017-11-15T02:50:13.877Z,0
2017-11-15T02:50:54.457Z,0
2017-11-15T02:51:35.024Z,0
2017-11-15T02:52:15.589Z,0
2017-11-15T02:52:56.131Z,0
2017-11-15T02:53:36.672Z,0
2017-11-15T02:54:17.194Z,0
2017-11-15T02:54:57.711Z,0
2017-11-15T02:55:38.224Z,0
2017-11-15T02:56:18.758Z,0
2017-11-15T02:56:59.336Z,0
2017-11-15T02:57:39.806Z,0
2017-11-15T02:58:20.396Z,0
2017-11-15T02:59:00.884Z,0
2017-11-15T02:59:41.380Z,0
2017-11-15T03:00:21.940Z,0
2017-11-15T03:01:02.469Z,0
2017-11-15T03:01:42.992Z,0
2017-11-15T03:02:23.475Z,0
2017-11-15T03:03:04.108Z,0
2017-11-15T03:03:44.625Z,0
2017-11-15T03:04:25.209Z,0
2017-11-15T03:05:05.711Z,0
2017-11-15T03:05:46.198Z,0
2017-11-15T03:06:26.837Z,0
2017-11-15T03:07:07.452Z,0
2017-11-15T03:07:47.945Z,0
2017-11-15T03:08:28.467Z,0
2017-11-15T03:09:08.985Z,0
2017-11-15T03:09:49.573Z,0
2017-11-15T03:10:30.141Z,0
2017-11-15T03:11:10.632Z,0
2017-11-15T03:11:51.167Z,0
2017-11-15T03:12:31.741Z,0
2017-11-15T03:13:12.238Z,0
2017-11-15T03:13:52.800Z,0
2017-11-15T03:14:33.292Z,0
2017-11-15T03:15:13.832Z,0
2017-11-15T03:15:54.383Z,0
2017-11-15T03:16:34.929Z,0
2017-11-15T03:17:15.448Z,0
2017-11-15T03:17:55.999Z,0
2017-11-15T03:18:36.550Z,0
2017-11-15T03:19:17.202Z,0
2017-11-15T03:19:57.749Z,0
2017-11-15T03:20:38.297Z,0
2017-11-15T03:21:18.850Z,0
2017-11-15T03:21:59.448Z,0
2017-11-15T03:22:40.058Z,0
2017-11-15T03:23:20.591Z,0
2017-11-15T03:24:01.200Z,0
2017-11-15T03:24:41.791Z,0
2017-11-15T03:25:22.377Z,0
2017-11-15T03:26:02.909Z,0
2017-11-15T03:26:43.622Z,0
2017-11-15T03:27:24.207Z,0
2017-11-15T03:28:04.774Z,0
2017-11-15T03:28:45.322Z,0
2017-11-15T03:29:25.890Z,0
2017-11-15T03:30:06.398Z,0
2017-11-15T03:30:47.048Z,0
2017-11-15T03:31:27.590Z,0
2017-11-15T03:32:08.137Z,0
2017-11-15T03:32:48.714Z,0
2017-11-15T03:33:29.354Z,0
2017-11-15T03:34:09.956Z,0
2017-11-15T03:34:50.641Z,0
2017-11-15T03:35:31.252Z,0
2017-11-15T03:36:11.801Z,0
2017-11-15T03:36:52.516Z,0
2017-11-15T03:37:33.061Z,0
2017-11-15T03:38:13.622Z,0
2017-11-15T03:38:54.384Z,0
2017-11-15T03:39:34.934Z,0
2017-11-15T03:40:15.520Z,0
2017-11-15T03:40:56.078Z,0
2017-11-15T03:41:36.583Z,0
2017-11-15T03:42:17.128Z,0
2017-11-15T03:42:57.639Z,0
2017-11-15T03:43:38.165Z,0
2017-11-15T03:44:18.724Z,0
2017-11-15T03:44:59.256Z,0
2017-11-15T03:45:39.783Z,0
2017-11-15T03:46:20.312Z,0
2017-11-15T03:47:00.917Z,0
2017-11-15T03:47:42.099Z,0
2017-11-15T03:48:22.636Z,0
2017-11-15T03:49:03.211Z,0
2017-11-15T03:49:43.739Z,0
2017-11-15T03:50:24.271Z,0
2017-11-15T03:51:04.802Z,0
2017-11-15T03:51:45.330Z,0
2017-11-15T03:52:25.988Z,0
2017-11-15T03:53:06.529Z,0
2017-11-15T03:53:47.046Z,0
2017-11-15T03:54:28.118Z,0
2017-11-15T03:55:08.650Z,0
2017-11-15T03:55:49.238Z,0
2017-11-15T03:56:29.751Z,0
2017-11-15T03:57:10.293Z,0
2017-11-15T03:57:50.768Z,0
2017-11-15T03:58:31.309Z,0
2017-11-15T03:59:11.870Z,0
2017-11-15T03:59:52.451Z,0
2017-11-15T04:00:33.136Z,0
2017-11-15T04:01:13.662Z,0
2017-11-15T04:01:54.223Z,0
2017-11-15T04:02:34.722Z,0
2017-11-15T04:03:15.208Z,0
2017-11-15T04:03:55.823Z,0
2017-11-15T04:04:36.461Z,0
2017-11-15T04:05:16.943Z,0
2017-11-15T04:05:57.479Z,0
2017-11-15T04:06:37.997Z,0
2017-11-15T04:07:18.727Z,0
2017-11-15T04:07:59.225Z,0
2017-11-15T04:08:39.747Z,0
2017-11-15T04:09:20.319Z,0
2017-11-15T04:10:00.862Z,0
2017-11-15T04:10:41.313Z,0
2017-11-15T04:11:21.871Z,0
2017-11-15T04:12:02.911Z,0
2017-11-15T04:12:42.913Z,0
2017-11-15T04:13:23.491Z,0
2017-11-15T04:14:03.994Z,0
2017-11-15T04:14:44.525Z,0
2017-11-15T04:15:25.099Z,0
2017-11-15T04:16:05.625Z,0
2017-11-15T04:16:46.133Z,0
2017-11-15T04:17:26.660Z,0
2017-11-15T04:18:07.245Z,0
2017-11-15T04:18:47.823Z,0
2017-11-15T04:19:28.371Z,0
2017-11-15T04:20:08.945Z,0
2017-11-15T04:20:49.507Z,0
2017-11-15T04:21:30.035Z,0
2017-11-15T04:22:10.550Z,0
2017-11-15T04:22:51.081Z,0
2017-11-15T04:23:31.604Z,0
2017-11-15T04:24:12.236Z,0
2017-11-15T04:24:52.639Z,0
2017-11-15T04:25:33.193Z,0
2017-11-15T04:26:13.741Z,0
2017-11-15T04:26:54.181Z,0
2017-11-15T04:27:34.729Z,0
2017-11-15T04:28:15.401Z,0
2017-11-15T04:28:55.971Z,0
2017-11-15T04:29:36.495Z,0
2017-11-15T04:30:17.031Z,0
2017-11-15T04:30:57.614Z,0
2017-11-15T04:31:38.290Z,0
2017-11-15T04:32:18.844Z,0
2017-11-15T04:32:59.360Z,0
2017-11-15T04:33:39.951Z,0
2017-11-15T04:34:20.477Z,0
2017-11-15T04:35:01.026Z,0
2017-11-15T04:35:41.548Z,0
2017-11-15T04:36:22.054Z,0
2017-11-15T04:37:02.600Z,0
2017-11-15T04:37:43.205Z,0
2017-11-15T04:38:23.699Z,0
2017-11-15T04:39:04.226Z,0
2017-11-15T04:39:44.701Z,0
2017-11-15T04:40:25.348Z,0
2017-11-15T04:41:05.886Z,0
2017-11-15T04:41:46.384Z,0
2017-11-15T04:42:26.927Z,0
2017-11-15T04:43:07.512Z,0
2017-11-15T04:43:48.009Z,0
2017-11-15T04:44:28.609Z,0
2017-11-15T04:45:09.227Z,0
2017-11-15T04:45:49.755Z,0
2017-11-15T04:46:30.267Z,0
2017-11-15T04:47:10.781Z,0
2017-11-15T04:47:51.338Z,0
2017-11-15T04:48:31.828Z,0
2017-11-15T04:49:12.390Z,0
2017-11-15T04:49:52.935Z,0
2017-11-15T04:50:33.489Z,0
2017-11-15T04:51:14.063Z,0
2017-11-15T04:51:54.540Z,0
2017-11-15T04:52:35.089Z,0
2017-11-15T04:53:15.640Z,0
2017-11-15T04:53:56.180Z,0
2017-11-15T04:54:36.707Z,0
2017-11-15T04:55:17.305Z,0
2017-11-15T04:55:57.897Z,0
2017-11-15T04:56:38.426Z,0
2017-11-15T04:57:18.934Z,0
2017-11-15T04:57:59.473Z,0
2017-11-15T04:58:40.025Z,0
2017-11-15T04:59:20.496Z,0
2017-11-15T05:00:01.077Z,0
2017-11-15T05:00:41.583Z,0
2017-11-15T05:01:22.103Z,0
2017-11-15T05:02:02.696Z,0
2017-11-15T05:02:43.324Z,0
2017-11-15T05:03:23.821Z,0
2017-11-15T05:04:04.432Z,0
2017-11-15T05:04:44.979Z,0
2017-11-15T05:05:25.504Z,0
2017-11-15T05:06:06.040Z,0
2017-11-15T05:06:46.562Z,0
2017-11-15T05:07:27.068Z,0
2017-11-15T05:08:07.614Z,0
2017-11-15T05:08:48.105Z,0
2017-11-15T05:09:28.715Z,0
2017-11-15T05:10:09.197Z,0
2017-11-15T05:10:49.758Z,0
2017-11-15T05:11:30.292Z,0
2017-11-15T05:12:10.832Z,0
2017-11-15T05:12:51.385Z,0
2017-11-15T05:13:32.024Z,0
2017-11-15T05:14:12.522Z,0
2017-11-15T05:14:53.039Z,0
2017-11-15T05:15:33.634Z,0
2017-11-15T05:16:14.166Z,0
2017-11-15T05:16:54.652Z,0
2017-11-15T05:17:35.224Z,0
2017-11-15T05:18:16.423Z,0
2017-11-15T05:18:56.274Z,0
2017-11-15T05:19:36.799Z,0
2017-11-15T05:20:17.346Z,0
2017-11-15T05:20:57.915Z,0
2017-11-15T05:21:38.451Z,0
2017-11-15T05:22:19.000Z,0
2017-11-15T05:22:59.476Z,0
2017-11-15T05:23:40.314Z,0
2017-11-15T05:24:20.797Z,0
2017-11-15T05:25:01.388Z,0
2017-11-15T05:25:41.942Z,0
2017-11-15T05:26:22.517Z,0
2017-11-15T05:27:03.118Z,0
2017-11-15T05:27:43.647Z,0
2017-11-15T05:28:24.159Z,0
2017-11-15T05:29:04.733Z,0
2017-11-15T05:29:45.278Z,0
2017-11-15T05:30:25.783Z,0
2017-11-15T05:31:06.369Z,0
2017-11-15T05:31:46.928Z,0
2017-11-15T05:32:27.509Z,0
2017-11-15T05:33:08.123Z,0
2017-11-15T05:33:48.669Z,0
2017-11-15T05:34:29.246Z,0
2017-11-15T05:35:09.800Z,0
2017-11-15T05:35:50.322Z,0
2017-11-15T05:36:30.961Z,0
2017-11-15T05:37:11.502Z,0
2017-11-15T05:37:52.090Z,0
2017-11-15T05:38:32.595Z,0
2017-11-15T05:39:13.175Z,0
2017-11-15T05:39:53.715Z,0
2017-11-15T05:40:34.412Z,0
2017-11-15T05:41:14.956Z,0
2017-11-15T05:41:55.399Z,0
2017-11-15T05:42:36.297Z,0
2017-11-15T05:43:16.850Z,0
2017-11-15T05:43:57.481Z,0
2017-11-15T05:44:38.137Z,0
2017-11-15T05:45:18.848Z,0
2017-11-15T05:45:59.423Z,0
2017-11-15T05:46:40.071Z,0
2017-11-15T05:47:20.563Z,0
2017-11-15T05:48:01.094Z,0
2017-11-15T05:48:41.660Z,0
2017-11-15T05:49:22.192Z,0
2017-11-15T05:50:02.741Z,0
2017-11-15T05:50:43.356Z,0
2017-11-15T05:51:23.869Z,0
2017-11-15T05:52:04.431Z,0
2017-11-15T05:52:44.928Z,0
2017-11-15T05:53:25.467Z,0
2017-11-15T05:54:06.008Z,0
2017-11-15T05:54:46.545Z,0
2017-11-15T05:55:27.120Z,0
2017-11-15T05:56:07.630Z,0
2017-11-15T05:56:48.140Z,0
2017-11-15T05:57:28.755Z,0
2017-11-15T05:58:09.209Z,0
2017-11-15T05:58:49.770Z,0
2017-11-15T05:59:30.216Z,0
2017-11-15T06:00:10.749Z,0
2017-11-15T06:00:51.341Z,0
2017-11-15T06:01:31.864Z,0
2017-11-15T06:02:12.428Z,0
2017-11-15T06:02:52.873Z,0
2017-11-15T06:03:33.479Z,0
2017-11-15T06:04:13.963Z,0
2017-11-15T06:04:54.508Z,0
2017-11-15T06:05:35.008Z,0
2017-11-15T06:06:15.584Z,0
2017-11-15T06:06:56.153Z,0
2017-11-15T06:07:36.641Z,0
2017-11-15T06:08:17.310Z,0
2017-11-15T06:08:57.781Z,0
2017-11-15T06:09:38.353Z,0
2017-11-15T06:10:18.901Z,0
2017-11-15T06:10:59.406Z,0
2017-11-15T06:11:39.963Z,0
2017-11-15T06:12:20.487Z,0
2017-11-15T06:13:01.060Z,0
2017-11-15T06:13:41.689Z,0
2017-11-15T06:14:22.258Z,0
2017-11-15T06:15:02.722Z,0
2017-11-15T06:15:43.361Z,0
2017-11-15T06:16:23.953Z,0
2017-11-15T06:17:04.453Z,0
2017-11-15T06:17:44.947Z,0
2017-11-15T06:18:25.514Z,0
2017-11-15T06:19:06.023Z,0
2017-11-15T06:19:46.634Z,0
2017-11-15T06:20:27.114Z,0
2017-11-15T06:21:07.865Z,0
2017-11-15T06:21:48.500Z,0
2017-11-15T06:22:28.974Z,0
2017-11-15T06:23:09.585Z,0
2017-11-15T06:23:50.116Z,0
2017-11-15T06:24:30.732Z,0
2017-11-15T06:25:11.217Z,0
2017-11-15T06:25:51.592Z,0
2017-11-15T06:26:32.217Z,0
2017-11-15T06:27:12.749Z,0
2017-11-15T06:27:53.287Z,0
2017-11-15T06:28:33.843Z,0
2017-11-15T06:29:14.421Z,0
2017-11-15T06:29:55.025Z,0
2017-11-15T06:30:35.725Z,0
2017-11-15T06:31:16.198Z,0
2017-11-15T06:31:56.796Z,0
2017-11-15T06:32:37.251Z,0
2017-11-15T06:33:17.857Z,5
2017-11-15T06:33:58.730Z,5
2017-11-15T06:34:38.995Z,5
2017-11-15T06:35:19.495Z,5
2017-11-15T06:36:00.069Z,5
2017-11-15T06:36:40.850Z,5
2017-11-15T06:37:21.687Z,5
2017-11-15T06:38:02.732Z,5
2017-11-15T06:38:43.622Z,5
2017-11-15T06:39:24.810Z,5
2017-11-15T06:40:05.564Z,5
2017-11-15T06:40:46.125Z,5
2017-11-15T06:41:28.432Z,5
2017-11-15T06:42:10.434Z,5
2017-11-15T06:42:50.859Z,10
2017-11-15T06:43:31.381Z,10
2017-11-15T06:44:11.913Z,10
2017-11-15T06:44:52.566Z,10
2017-11-15T06:45:33.043Z,10
2017-11-15T06:46:13.579Z,10
2017-11-15T06:46:54.078Z,10
2017-11-15T06:47:34.618Z,10
2017-11-15T06:48:15.161Z,10
2017-11-15T06:48:55.784Z,10
2017-11-15T06:49:36.361Z,10
2017-11-15T06:50:16.880Z,15
2017-11-15T06:50:57.511Z,15
2017-11-15T06:51:38.339Z,15
2017-11-15T06:52:18.918Z,15
2017-11-15T06:52:59.330Z,15
2017-11-15T06:53:39.923Z,15
2017-11-15T06:54:20.907Z,15
2017-11-15T06:55:01.372Z,15
2017-11-15T06:55:41.944Z,15
2017-11-15T06:56:22.539Z,15
2017-11-15T06:57:03.028Z,20
2017-11-15T06:57:43.715Z,20
2017-11-15T06:58:24.555Z,20
2017-11-15T06:59:05.104Z,20
2017-11-15T06:59:45.651Z,20
2017-11-15T07:00:26.170Z,20
2017-11-15T07:01:06.683Z,20
2017-11-15T07:01:47.244Z,20
2017-11-15T07:02:27.770Z,20
2017-11-15T07:03:08.286Z,20
2017-11-15T07:03:48.930Z,25
2017-11-15T07:04:29.495Z,25
2017-11-15T07:05:10.100Z,25
2017-11-15T07:05:50.621Z,25
2017-11-15T07:06:31.127Z,25
2017-11-15T07:07:11.700Z,25
2017-11-15T07:07:52.340Z,25
2017-11-15T07:08:32.833Z,25
2017-11-15T07:09:13.385Z,25
2017-11-15T07:09:53.903Z,25
2017-11-15T07:10:34.655Z,30
2017-11-15T07:11:15.189Z,30
2017-11-15T07:11:55.722Z,30
2017-11-15T07:12:36.290Z,30
2017-11-15T07:13:16.876Z,30
2017-11-15T07:13:57.403Z,30
2017-11-15T07:14:38.019Z,30
2017-11-15T07:15:18.548Z,30
2017-11-15T07:15:59.085Z,30
2017-11-15T07:16:39.616Z,30
2017-11-15T07:17:20.430Z,30
2017-11-15T07:18:00.890Z,30
2017-11-15T07:18:41.404Z,30
2017-11-15T07:19:21.905Z,30
2017-11-15T07:20:02.441Z,35
2017-11-15T07:20:43.015Z,35
2017-11-15T07:21:23.503Z,35
2017-11-15T07:22:04.040Z,35
2017-11-15T07:22:44.638Z,35
2017-11-15T07:23:25.213Z,35
2017-11-15T07:24:05.758Z,35
2017-11-15T07:24:46.330Z,35
2017-11-15T07:25:26.886Z,35
2017-11-15T07:26:07.511Z,40
2017-11-15T07:26:48.056Z,35
2017-11-15T07:27:28.611Z,35
2017-11-15T07:28:09.145Z,35
2017-11-15T07:28:49.887Z,35
2017-11-15T07:29:30.466Z,35
2017-11-15T07:30:11.022Z,40
2017-11-15T07:30:51.572Z,40
2017-11-15T07:31:32.110Z,40
2017-11-15T07:32:12.643Z,40
2017-11-15T07:32:53.171Z,40
2017-11-15T07:33:33.775Z,40
2017-11-15T07:34:14.259Z,45
2017-11-15T07:34:54.791Z,45
2017-11-15T07:35:35.335Z,45
2017-11-15T07:36:15.913Z,45
2017-11-15T07:36:56.543Z,45
2017-11-15T07:37:37.127Z,45
2017-11-15T07:38:17.626Z,40
2017-11-15T07:38:58.126Z,40
2017-11-15T07:39:38.694Z,40
2017-11-15T07:40:19.274Z,45
2017-11-15T07:40:59.866Z,45
2017-11-15T07:41:40.449Z,45
2017-11-15T07:42:21.086Z,45
2017-11-15T07:43:01.593Z,45
2017-11-15T07:43:42.163Z,45
2017-11-15T07:44:22.775Z,45
2017-11-15T07:45:03.293Z,45
2017-11-15T07:45:43.868Z,45
2017-11-15T07:46:24.396Z,50
2017-11-15T07:47:04.954Z,50
2017-11-15T07:47:45.495Z,50
2017-11-15T07:48:26.051Z,50
2017-11-15T07:49:06.605Z,50
2017-11-15T07:49:47.151Z,50
2017-11-15T07:50:27.663Z,50
2017-11-15T07:51:08.205Z,50
2017-11-15T07:51:48.834Z,50
2017-11-15T07:52:29.385Z,50
2017-11-15T07:53:10.110Z,50
2017-11-15T07:53:50.635Z,50
2017-11-15T07:54:31.210Z,50
2017-11-15T07:55:11.878Z,50
2017-11-15T07:55:52.485Z,50
2017-11-15T07:56:32.975Z,50
2017-11-15T07:57:13.815Z,50
2017-11-15T07:57:54.428Z,50
2017-11-15T07:58:35.090Z,55
2017-11-15T07:59:15.671Z,55
2017-11-15T07:59:56.397Z,55
2017-11-15T08:00:36.968Z,55
2017-11-15T08:01:17.531Z,55
2017-11-15T08:01:58.201Z,55
2017-11-15T08:02:38.851Z,55
2017-11-15T08:03:19.454Z,50
2017-11-15T08:03:59.988Z,50
2017-11-15T08:04:40.569Z,50
2017-11-15T08:05:21.248Z,50
2017-11-15T08:06:01.815Z,50
2017-11-15T08:06:42.528Z,55
2017-11-15T08:07:23.041Z,55
2017-11-15T08:08:03.557Z,55
2017-11-15T08:08:44.278Z,55
2017-11-15T08:09:24.643Z,55
2017-11-15T08:10:05.229Z,55
2017-11-15T08:10:46.132Z,55
2017-11-15T08:11:26.497Z,55
2017-11-15T08:12:06.957Z,55
2017-11-15T08:12:47.524Z,55
2017-11-15T08:13:28.042Z,60
2017-11-15T08:14:08.546Z,60
2017-11-15T08:14:49.084Z,60
2017-11-15T08:15:29.702Z,60
2017-11-15T08:16:10.219Z,60
2017-11-15T08:16:50.711Z,60
2017-11-15T08:17:31.277Z,55
2017-11-15T08:18:11.817Z,55
2017-11-15T08:18:52.461Z,55
2017-11-15T08:19:33.031Z,55
2017-11-15T08:20:13.755Z,55
2017-11-15T08:20:54.324Z,60
2017-11-15T08:21:34.857Z,55
2017-11-15T08:22:15.422Z,55
2017-11-15T08:22:56.128Z,60
2017-11-15T08:23:36.684Z,60
2017-11-15T08:24:17.787Z,60
2017-11-15T08:24:58.370Z,60
2017-11-15T08:25:38.968Z,60
2017-11-15T08:26:19.477Z,60
2017-11-15T08:27:00.049Z,60
2017-11-15T08:27:40.638Z,60
2017-11-15T08:28:21.193Z,60
2017-11-15T08:29:01.731Z,60
2017-11-15T08:29:42.408Z,55
2017-11-15T08:30:22.936Z,60
2017-11-15T08:31:03.984Z,60
2017-11-15T08:31:44.533Z,60
2017-11-15T08:32:25.093Z,60
2017-11-15T08:33:05.638Z,60
2017-11-15T08:33:46.309Z,60
2017-11-15T08:34:26.896Z,65
2017-11-15T08:35:07.447Z,65
2017-11-15T08:35:48.076Z,65
2017-11-15T08:36:28.708Z,65
2017-11-15T08:37:09.228Z,65
2017-11-15T08:37:49.800Z,65
2017-11-15T08:38:30.462Z,65
2017-11-15T08:39:11.094Z,65
2017-11-15T08:39:51.711Z,65
2017-11-15T08:40:32.271Z,65
2017-11-15T08:41:12.852Z,65
2017-11-15T08:41:53.396Z,65
2017-11-15T08:42:34.125Z,65
2017-11-15T08:43:14.860Z,65
2017-11-15T08:43:55.276Z,65
2017-11-15T08:44:35.754Z,65
2017-11-15T08:45:16.585Z,65
2017-11-15T08:45:57.599Z,65
2017-11-15T08:46:38.285Z,65
2017-11-15T08:47:19.095Z,65
2017-11-15T08:47:59.759Z,65
2017-11-15T08:48:40.409Z,65
2017-11-15T08:49:20.857Z,65
2017-11-15T08:50:01.493Z,65
2017-11-15T08:50:41.997Z,65
2017-11-15T08:51:22.596Z,65
2017-11-15T08:52:03.551Z,65
2017-11-15T08:52:44.766Z,65
2017-11-15T08:53:25.292Z,70
2017-11-15T08:54:06.235Z,70
2017-11-15T08:54:47.006Z,70
2017-11-15T08:55:27.513Z,70
2017-11-15T08:56:08.221Z,70
2017-11-15T08:56:49.520Z,70
2017-11-15T08:57:30.139Z,70
2017-11-15T08:58:10.847Z,70
2017-11-15T08:58:51.395Z,70
2017-11-15T08:59:31.989Z,70
2017-11-15T09:00:12.713Z,70
2017-11-15T09:00:53.443Z,70
2017-11-15T09:01:34.061Z,70
2017-11-15T09:02:14.641Z,70
2017-11-15T09:02:55.166Z,70
2017-11-15T09:03:35.873Z,70
2017-11-15T09:04:16.395Z,70
2017-11-15T09:04:57.716Z,70
2017-11-15T09:05:38.230Z,70
2017-11-15T09:06:19.117Z,70
2017-11-15T09:07:00.207Z,70
2017-11-15T09:07:40.880Z,70
2017-11-15T09:08:21.408Z,70
2017-11-15T09:09:01.942Z,70
2017-11-15T09:09:42.767Z,70
2017-11-15T09:10:23.946Z,70
2017-11-15T09:11:04.551Z,75
2017-11-15T09:11:45.077Z,70
2017-11-15T09:12:26.596Z,75
2017-11-15T09:13:08.626Z,75
2017-11-15T09:13:49.931Z,70
2017-11-15T09:14:30.780Z,75
2017-11-15T09:15:11.303Z,75
2017-11-15T09:15:51.843Z,75
2017-11-15T09:16:32.403Z,75
2017-11-15T09:17:13.207Z,75
2017-11-15T09:17:53.684Z,75
2017-11-15T09:18:34.244Z,75
2017-11-15T09:19:15.147Z,75
2017-11-15T09:19:55.944Z,75
2017-11-15T09:20:36.964Z,75
2017-11-15T09:21:17.575Z,75
2017-11-15T09:21:58.241Z,75
2017-11-15T09:22:38.730Z,75
2017-11-15T09:23:19.379Z,75
2017-11-15T09:24:00.410Z,75
2017-11-15T09:24:41.555Z,75
2017-11-15T09:25:22.145Z,75
2017-11-15T09:26:02.680Z,75
2017-11-15T09:26:43.332Z,75
2017-11-15T09:27:23.889Z,75
2017-11-15T09:28:04.443Z,75
2017-11-15T09:28:45.217Z,75
2017-11-15T09:29:25.886Z,75
2017-11-15T09:30:06.447Z,75
2017-11-15T09:30:50.223Z,75
2017-11-15T09:31:30.830Z,75
2017-11-15T09:32:12.129Z,75
2017-11-15T09:32:52.699Z,75
2017-11-15T09:33:33.165Z,75
2017-11-15T09:34:13.782Z,80
2017-11-15T09:34:54.320Z,75
2017-11-15T09:35:34.895Z,80
2017-11-15T09:36:15.508Z,80
2017-11-15T09:36:56.213Z,80
2017-11-15T09:37:36.901Z,80
2017-11-15T09:38:17.471Z,80
2017-11-15T09:38:58.265Z,80
2017-11-15T09:39:38.943Z,80
2017-11-15T09:40:19.491Z,80
2017-11-15T09:40:59.893Z,80
2017-11-15T09:41:40.670Z,80
2017-11-15T09:42:21.105Z,80
2017-11-15T09:43:01.851Z,80
2017-11-15T09:43:42.385Z,80
2017-11-15T09:44:23.127Z,80
2017-11-15T09:45:03.531Z,80
2017-11-15T09:45:44.055Z,80
2017-11-15T09:46:24.608Z,80
2017-11-15T09:47:05.173Z,80
2017-11-15T09:47:45.736Z,80
2017-11-15T09:48:26.299Z,80
2017-11-15T09:49:06.846Z,80
2017-11-15T09:49:47.364Z,80
2017-11-15T09:50:27.939Z,80
2017-11-15T09:51:08.462Z,80
2017-11-15T09:51:49.062Z,80
2017-11-15T09:52:29.580Z,80
2017-11-15T09:53:10.830Z,80